Time;durP1;ratioP1;P1;durP2;ratioP2;P2;SDS_P1;SDS_P2;PMS_P1;PMS_P2;Temp;Humidity;BMP_temperature;BMP_pressure;BME280_temperature;BME280_humidity;BME280_pressure;Samples;Min_cycle;Max_cycle;Signal;HPM_P1;HPM_P2
2023/01/09 00:04:16;;;;;;;2.27;1.70;;;4.50;99.90;;;;;;10488989;28;20510;-79
2023/01/09 00:09:17;;;;;;;0.67;0.67;;;4.30;99.90;;;;;;10493929;28;20052;-77
2023/01/09 00:14:18;;;;;;;9.27;3.77;;;4.10;99.90;;;;;;10490802;28;20039;-77
2023/01/09 00:19:18;;;;;;;1.30;1.30;;;4.00;99.90;;;;;;10489592;28;20408;-77
2023/01/09 00:24:19;;;;;;;2.83;2.57;;;4.00;99.90;;;;;;10488561;28;20034;-77
2023/01/09 00:29:19;;;;;;;0.63;0.63;;;3.90;99.90;;;;;;10491184;28;20039;-77
2023/01/09 00:34:20;;;;;;;0.67;0.67;;;3.80;99.90;;;;;;10492316;28;20041;-79
2023/01/09 00:39:22;;;;;;;3.20;3.00;;;3.70;99.90;;;;;;10492000;28;20050;-77
2023/01/09 00:44:30;;;;;;;4.77;2.87;;;3.70;99.90;;;;;;10487333;28;20491;-77
2023/01/09 00:49:34;;;;;;;0.50;0.50;;;3.70;99.90;;;;;;10489174;28;20553;-77
2023/01/09 00:54:35;;;;;;;0.57;0.57;;;3.60;99.90;;;;;;10494669;28;20024;-77
2023/01/09 00:59:36;;;;;;;0.33;0.33;;;3.50;99.90;;;;;;10476378;28;20599;-78
2023/01/09 01:09:56;;;;;;;1.03;1.03;;;3.20;99.90;;;;;;10445507;28;20041;-78
2023/01/09 01:14:56;;;;;;;0.30;0.30;;;3.10;99.90;;;;;;10452176;28;20036;-77
2023/01/09 01:19:57;;;;;;;0.10;0.10;;;3.20;99.90;;;;;;10445814;28;20028;-77
2023/01/09 01:24:58;;;;;;;1.13;0.73;;;3.10;99.90;;;;;;10444496;28;20028;-77
2023/01/09 01:29:58;;;;;;;3.47;3.13;;;3.10;99.90;;;;;;10445733;28;20033;-78
2023/01/09 01:34:59;;;;;;;1.80;1.63;;;3.10;99.90;;;;;;10446476;28;20477;-77
2023/01/09 01:39:59;;;;;;;0.57;0.57;;;3.10;99.90;;;;;;10444820;28;20031;-77
2023/01/09 01:45:15;;;;;;;0.30;0.30;;;3.10;99.90;;;;;;10449322;28;20037;-78
2023/01/09 01:50:31;;;;;;;;;;;3.00;99.90;;;;;;10427526;28;20034;-77
2023/01/09 01:55:35;;;;;;;1.43;1.33;;;3.00;99.90;;;;;;10430647;28;19917;-76
2023/01/09 02:00:39;;;;;;;4.80;1.03;;;3.00;99.90;;;;;;10446839;28;20052;-77
2023/01/09 02:05:40;;;;;;;1.47;1.37;;;3.00;99.90;;;;;;10451534;28;20393;-77
2023/01/09 02:10:41;;;;;;;4.33;3.97;;;3.00;99.90;;;;;;10442924;28;20040;-78
2023/01/09 02:15:47;;;;;;;0.77;0.73;;;3.10;99.90;;;;;;10444654;28;20135;-77
2023/01/09 02:21:21;;;;;;;0.67;0.67;;;3.00;99.90;;;;;;10447439;28;20862;-77
2023/01/09 02:26:54;;;;;;;7.73;2.87;;;2.90;99.90;;;;;;10430582;28;20033;-77
2023/01/09 02:32:05;;;;;;;2.60;2.43;;;2.80;99.90;;;;;;10437851;28;20040;-78
2023/01/09 02:37:24;;;;;;;0.57;0.57;;;2.70;99.90;;;;;;10441721;28;20047;-79
2023/01/09 02:42:26;;;;;;;1.50;1.50;;;2.80;99.90;;;;;;10449889;28;20682;-77
2023/01/09 02:47:29;;;;;;;0.53;0.53;;;2.80;99.90;;;;;;10443903;28;20167;-77
2023/01/09 02:52:51;;;;;;;1.20;1.10;;;2.70;99.90;;;;;;10450293;28;20242;-79
2023/01/09 02:58:10;;;;;;;1.03;0.97;;;2.80;99.90;;;;;;10441262;28;20048;-77
2023/01/09 03:03:43;;;;;;;0.80;0.80;;;2.80;99.90;;;;;;10453150;28;20605;-78
2023/01/09 03:08:52;;;;;;;1.27;1.27;;;2.90;99.90;;;;;;10440543;28;20096;-77
2023/01/09 03:14:02;;;;;;;10.67;2.67;;;2.90;99.90;;;;;;10447732;28;20065;-77
2023/01/09 03:19:07;;;;;;;3.10;1.50;;;2.90;99.90;;;;;;10459446;28;20437;-79
2023/01/09 03:24:07;;;;;;;0.93;0.93;;;2.90;99.90;;;;;;10460888;28;20507;-77
2023/01/09 03:29:08;;;;;;;4.90;2.93;;;2.90;99.90;;;;;;10455094;28;20041;-77
2023/01/09 03:34:09;;;;;;;2.60;2.37;;;3.00;99.90;;;;;;10446943;28;20033;-77
2023/01/09 03:39:09;;;;;;;1.20;1.20;;;3.00;99.90;;;;;;10448814;28;20037;-77
2023/01/09 03:44:10;;;;;;;0.20;0.20;;;2.90;99.90;;;;;;10448605;28;20037;-77
2023/01/09 03:49:10;;;;;;;2.93;2.83;;;2.90;99.90;;;;;;10448492;28;20033;-77
2023/01/09 03:54:11;;;;;;;1.50;1.40;;;2.90;99.90;;;;;;10460168;28;20846;-77
2023/01/09 03:59:11;;;;;;;0.33;0.33;;;2.90;99.90;;;;;;10447511;28;20464;-78
2023/01/09 04:04:12;;;;;;;0.40;0.40;;;2.80;99.90;;;;;;10453416;28;20529;-78
2023/01/09 04:09:12;;;;;;;0.10;0.10;;;2.80;99.90;;;;;;10440883;28;20033;-80
2023/01/09 04:14:13;;;;;;;0.10;0.10;;;2.70;99.90;;;;;;10447381;28;20029;-78
2023/01/09 04:19:14;;;;;;;0.20;0.20;;;2.60;99.90;;;;;;10456606;28;20514;-77
2023/01/09 04:24:15;;;;;;;0.60;0.60;;;2.60;99.90;;;;;;10446365;28;20612;-76
2023/01/09 04:29:15;;;;;;;6.17;2.73;;;2.60;99.90;;;;;;10445085;28;20490;-77
2023/01/09 04:34:16;;;;;;;0.30;0.30;;;2.60;99.90;;;;;;10449984;28;20037;-78
2023/01/09 04:39:16;;;;;;;0.47;0.47;;;2.60;99.90;;;;;;10446426;28;20566;-78
2023/01/09 04:44:25;;;;;;;0.17;0.17;;;2.50;99.90;;;;;;10449036;28;20029;-78
2023/01/09 04:49:25;;;;;;;0.30;0.30;;;2.50;99.90;;;;;;10447184;28;20025;-77
2023/01/09 04:54:26;;;;;;;0.20;0.20;;;2.50;99.90;;;;;;10449934;28;20028;-77
2023/01/09 04:59:27;;;;;;;0.00;0.00;;;2.60;99.90;;;;;;10444900;28;20052;-78
2023/01/09 05:04:27;;;;;;;1.60;1.50;;;2.50;99.90;;;;;;10445890;28;20039;-77
2023/01/09 05:09:28;;;;;;;2.00;1.30;;;2.50;99.90;;;;;;10427490;28;20111;-77
2023/01/09 05:14:29;;;;;;;1.00;1.00;;;2.50;99.90;;;;;;10455072;28;20037;-77
2023/01/09 05:19:29;;;;;;;0.00;0.00;;;2.60;99.90;;;;;;10447177;28;20689;-78
2023/01/09 05:24:30;;;;;;;0.00;0.00;;;2.60;99.90;;;;;;10434813;28;20033;-78
2023/01/09 05:29:30;;;;;;;0.93;0.93;;;2.60;99.90;;;;;;10436427;28;20029;-78
2023/01/09 05:34:31;;;;;;;3.47;3.23;;;2.70;99.90;;;;;;10434020;28;20025;-78
2023/01/09 05:39:31;;;;;;;3.13;2.93;;;2.80;99.90;;;;;;10437654;28;20041;-77
2023/01/09 05:44:32;;;;;;;0.83;0.83;;;2.80;99.90;;;;;;10443745;28;20520;-77
2023/01/09 05:49:32;;;;;;;4.97;1.80;;;2.90;99.90;;;;;;10443934;28;20215;-78
2023/01/09 05:54:33;;;;;;;2.27;2.07;;;2.90;99.90;;;;;;10443182;28;20258;-78
2023/01/09 05:59:34;;;;;;;0.00;0.00;;;3.00;99.90;;;;;;10443197;28;20381;-78
2023/01/09 06:04:34;;;;;;;1.80;0.77;;;3.00;99.90;;;;;;10443186;28;20128;-78
2023/01/09 06:09:35;;;;;;;0.67;0.63;;;3.10;99.90;;;;;;10443360;28;20027;-78
2023/01/09 06:14:35;;;;;;;0.33;0.33;;;3.10;99.90;;;;;;10442918;28;20032;-78
2023/01/09 06:19:36;;;;;;;4.23;2.83;;;3.10;99.90;;;;;;10442232;28;20036;-79
2023/01/09 06:24:36;;;;;;;3.97;3.30;;;3.20;99.90;;;;;;10442367;28;20029;-77
2023/01/09 06:29:37;;;;;;;4.63;3.20;;;3.30;99.90;;;;;;10442804;28;20029;-78
2023/01/09 06:34:38;;;;;;;2.93;2.70;;;3.40;99.90;;;;;;10442010;28;20028;-78
2023/01/09 06:39:38;;;;;;;9.83;4.43;;;3.50;99.90;;;;;;10442538;28;20041;-77
2023/01/09 06:44:39;;;;;;;8.40;4.53;;;3.60;99.90;;;;;;10441490;28;20415;-78
2023/01/09 06:49:39;;;;;;;0.30;0.30;;;3.70;99.90;;;;;;10446345;28;20094;-78
2023/01/09 06:54:40;;;;;;;0.90;0.90;;;3.80;99.90;;;;;;10455521;28;20059;-78
2023/01/09 06:59:41;;;;;;;0.73;0.30;;;4.00;99.90;;;;;;10455241;28;20144;-78
2023/01/09 07:04:41;;;;;;;3.30;3.10;;;4.00;99.90;;;;;;10455994;28;20132;-77
2023/01/09 07:09:42;;;;;;;0.10;0.10;;;4.10;99.90;;;;;;10455082;28;20044;-78
2023/01/09 07:14:42;;;;;;;1.47;1.37;;;4.20;99.90;;;;;;10454932;28;20029;-77
2023/01/09 07:19:43;;;;;;;0.90;0.90;;;4.20;99.90;;;;;;10437341;28;20024;-78
2023/01/09 07:24:43;;;;;;;0.40;0.40;;;4.20;99.90;;;;;;10455142;28;20036;-77
2023/01/09 07:29:44;;;;;;;0.83;0.83;;;4.30;99.90;;;;;;10455186;28;20075;-78
2023/01/09 07:34:44;;;;;;;0.20;0.20;;;4.30;99.90;;;;;;10454820;28;20025;-78
2023/01/09 07:39:45;;;;;;;0.27;0.27;;;4.40;99.90;;;;;;10455331;28;20025;-78
2023/01/09 07:44:45;;;;;;;4.53;2.17;;;4.50;99.90;;;;;;10454735;28;20029;-79
2023/01/09 07:49:46;;;;;;;0.00;0.00;;;4.50;99.90;;;;;;10454508;28;20516;-78
2023/01/09 07:54:47;;;;;;;1.43;1.43;;;4.60;99.90;;;;;;10436563;28;20032;-79
2023/01/09 07:59:47;;;;;;;6.13;3.63;;;4.70;99.90;;;;;;10453706;28;20061;-78
2023/01/09 08:04:48;;;;;;;0.27;0.27;;;4.70;99.90;;;;;;10446736;28;20041;-79
2023/01/09 08:09:48;;;;;;;0.37;0.37;;;4.80;99.90;;;;;;10448716;28;20086;-78
2023/01/09 08:14:50;;;;;;;0.93;0.87;;;4.80;99.90;;;;;;10446985;28;20518;-78
2023/01/09 08:19:50;;;;;;;0.83;0.83;;;4.90;99.90;;;;;;10447396;28;20025;-78
2023/01/09 08:24:51;;;;;;;1.50;1.00;;;5.00;99.90;;;;;;10446466;28;20025;-78
2023/01/09 08:29:51;;;;;;;0.57;0.57;;;5.00;99.90;;;;;;10446707;28;20094;-78
2023/01/09 08:34:52;;;;;;;0.43;0.43;;;5.10;99.90;;;;;;10446758;28;20025;-79
2023/01/09 08:39:52;;;;;;;0.60;0.60;;;5.20;99.90;;;;;;10446075;28;20083;-79
2023/01/09 08:50:12;;;;;;;1.13;1.03;;;5.30;99.90;;;;;;10445609;28;20033;-79
2023/01/09 08:55:13;;;;;;;0.30;0.30;;;5.40;99.90;;;;;;10445980;28;20045;-79
2023/01/09 09:00:14;;;;;;;0.30;0.30;;;5.50;99.90;;;;;;10436734;28;20689;-79
2023/01/09 09:05:14;;;;;;;1.63;1.53;;;5.60;99.90;;;;;;10441053;28;20068;-79
2023/01/09 09:10:16;;;;;;;0.70;0.70;;;5.60;99.90;;;;;;10445030;28;20131;-79
2023/01/09 09:15:23;;;;;;;0.00;0.00;;;5.60;99.90;;;;;;10444405;28;20087;-78
2023/01/09 09:20:27;;;;;;;1.60;0.97;;;5.60;99.90;;;;;;10432229;28;20056;-79
2023/01/09 09:25:28;;;;;;;0.63;0.63;;;5.70;99.90;;;;;;10444454;28;20028;-78
2023/01/09 09:30:28;;;;;;;0.00;0.00;;;5.80;99.90;;;;;;10444715;28;20025;-79
2023/01/09 09:35:31;;;;;;;0.00;0.00;;;5.80;99.90;;;;;;10444358;28;20033;-78
2023/01/09 09:44:41;;;;;;;0.10;0.10;;;5.90;99.90;;;;;;10444394;28;20743;-78
2023/01/09 09:47:01;;;;;;;0.00;0.00;;;5.90;99.90;;;;;;10443438;28;20049;-79
2023/01/09 09:52:17;;;;;;;0.00;0.00;;;6.00;99.90;;;;;;10443395;28;20035;-79
2023/01/09 09:57:24;;;;;;;0.30;0.30;;;6.10;99.90;;;;;;10443228;28;20040;-78
2023/01/09 10:02:52;;;;;;;0.20;0.20;;;6.10;99.90;;;;;;10445078;28;20063;-79
2023/01/09 10:07:56;;;;;;;0.27;0.27;;;6.20;99.90;;;;;;10433634;28;20614;-79
2023/01/09 10:12:58;;;;;;;0.00;0.00;;;6.20;99.90;;;;;;10441739;28;20499;-78
2023/01/09 10:17:59;;;;;;;0.00;0.00;;;6.30;99.90;;;;;;10443589;28;20183;-79
2023/01/09 10:23:25;;;;;;;0.10;0.10;;;6.40;99.90;;;;;;10442529;28;20668;-79
2023/01/09 10:29:00;;;;;;;0.27;0.27;;;6.50;99.90;;;;;;10443159;28;20481;-79
2023/01/09 10:34:22;;;;;;;0.00;0.00;;;6.60;99.90;;;;;;10442737;28;20435;-78
2023/01/09 10:39:39;;;;;;;4.23;2.47;;;6.80;99.90;;;;;;10442715;28;20504;-79
2023/01/09 10:44:52;;;;;;;4.90;2.47;;;6.90;99.90;;;;;;10442660;28;20021;-78
2023/01/09 10:49:54;;;;;;;0.57;0.57;;;7.10;99.90;;;;;;10443355;28;20500;-79
2023/01/09 10:55:02;;;;;;;3.07;2.80;;;7.20;99.90;;;;;;10442499;28;20037;-78
2023/01/09 11:00:04;;;;;;;3.23;3.03;;;7.20;99.90;;;;;;10442288;28;20081;-79
2023/01/09 11:05:05;;;;;;;5.50;5.03;;;7.30;99.90;;;;;;10441881;28;20025;-79
2023/01/09 11:10:11;;;;;;;2.97;2.60;;;7.40;99.90;;;;;;10442010;28;20021;-80
2023/01/09 11:15:14;;;;;;;4.57;4.17;;;7.40;99.90;;;;;;10442868;28;20033;-78
2023/01/09 11:20:18;;;;;;;2.93;2.73;;;7.50;99.90;;;;;;10442158;28;20028;-77
2023/01/09 11:25:21;;;;;;;1.63;1.53;;;7.60;99.90;;;;;;10425089;28;20033;-78
2023/01/09 11:30:25;;;;;;;1.03;1.03;;;7.80;99.90;;;;;;10428552;28;20029;-78
2023/01/09 11:35:30;;;;;;;4.47;2.77;;;7.90;99.90;;;;;;10442002;28;20035;-78
2023/01/09 11:40:54;;;;;;;0.63;0.40;;;7.90;99.90;;;;;;10449053;28;20025;-79
2023/01/09 11:45:55;;;;;;;1.03;1.03;;;8.00;99.90;;;;;;10448672;28;20028;-79
2023/01/09 11:50:58;;;;;;;1.77;1.37;;;8.00;99.90;;;;;;10448694;28;20155;-78
2023/01/09 11:56:01;;;;;;;3.00;1.03;;;8.00;99.90;;;;;;10432746;28;20378;-79
2023/01/09 12:01:24;;;;;;;0.00;0.00;;;8.00;99.90;;;;;;10427260;28;20405;-78
2023/01/09 12:06:31;;;;;;;0.30;0.30;;;7.90;99.90;;;;;;10442324;28;20039;-78
2023/01/09 12:11:46;;;;;;;1.80;1.43;;;7.80;99.90;;;;;;10447729;28;20040;-78
2023/01/09 12:16:58;;;;;;;0.80;0.70;;;7.80;99.90;;;;;;10447711;28;20036;-77
2023/01/09 12:22:11;;;;;;;2.97;1.17;;;7.80;99.90;;;;;;10436644;28;20657;-78
2023/01/09 12:27:39;;;;;;;0.20;0.20;;;7.80;99.90;;;;;;10447425;28;20033;-78
2023/01/09 12:32:42;;;;;;;0.10;0.10;;;7.70;99.90;;;;;;10446690;28;20371;-79
2023/01/09 12:38:06;;;;;;;1.17;1.17;;;7.70;99.90;;;;;;10446953;28;20041;-79
2023/01/09 12:43:28;;;;;;;0.20;0.20;;;7.80;99.90;;;;;;10446714;28;20158;-79
2023/01/09 12:48:51;;;;;;;0.37;0.37;;;7.80;99.90;;;;;;10445699;28;20672;-78
2023/01/09 12:54:00;;;;;;;0.00;0.00;;;7.90;99.90;;;;;;10445821;28;20033;-78
2023/01/09 12:59:31;;;;;;;0.13;0.13;;;7.90;99.90;;;;;;10445538;28;20045;-79
2023/01/09 13:04:36;;;;;;;0.00;0.00;;;7.90;99.90;;;;;;10416252;28;20037;-78
2023/01/09 13:09:42;;;;;;;0.00;0.00;;;8.00;99.90;;;;;;10428182;28;20029;-79
2023/01/09 13:14:48;;;;;;;0.43;0.43;;;8.00;99.90;;;;;;10445276;28;20064;-79
2023/01/09 13:19:49;;;;;;;0.47;0.47;;;8.00;99.90;;;;;;10445276;28;20834;-79
2023/01/09 13:25:32;;;;;;;0.23;0.23;;;8.00;99.90;;;;;;10443134;28;20144;-78
2023/01/09 13:31:01;;;;;;;0.93;0.93;;;7.90;99.90;;;;;;10339380;28;20485;-80
2023/01/09 13:36:02;;;;;;;4.13;1.70;;;7.90;99.90;;;;;;10445316;28;20056;-79
2023/01/09 13:46:42;;;;;;;1.97;1.80;;;7.80;99.90;;;;;;10442380;28;20045;-79
2023/01/09 13:51:42;;;;;;;19.87;3.37;;;7.80;99.90;;;;;;10444240;28;20667;-80
2023/01/09 13:57:15;;;;;;;0.73;0.20;;;7.80;99.90;;;;;;10443711;28;20048;-80
2023/01/09 14:02:37;;;;;;;8.40;3.97;;;7.80;99.90;;;;;;10441416;28;20040;-80
2023/01/09 14:07:43;;;;;;;0.07;0.07;;;7.90;99.90;;;;;;10426023;28;20036;-79
2023/01/09 14:12:43;;;;;;;0.20;0.20;;;7.90;99.90;;;;;;10425431;28;20032;-81
2023/01/09 14:17:44;;;;;;;0.93;0.93;;;7.90;99.90;;;;;;10442737;28;20408;-80
2023/01/09 14:22:45;;;;;;;4.37;1.83;;;7.90;99.90;;;;;;10410784;28;20413;-79
2023/01/09 14:27:54;;;;;;;0.77;0.77;;;7.90;99.90;;;;;;10432638;28;20021;-79
2023/01/09 14:33:14;;;;;;;3.23;3.03;;;8.00;99.90;;;;;;10441825;28;20037;-79
2023/01/09 14:38:39;;;;;;;2.53;2.37;;;7.90;99.90;;;;;;10442433;28;20033;-81
2023/01/09 14:43:53;;;;;;;2.00;1.80;;;7.90;99.90;;;;;;10442201;28;20021;-78
2023/01/09 14:49:23;;;;;;;2.40;2.20;;;7.90;99.90;;;;;;10425673;28;20052;-80
2023/01/09 14:54:31;;;;;;;3.07;2.83;;;7.90;99.90;;;;;;10441848;28;20108;-80
2023/01/09 14:59:32;;;;;;;3.40;1.50;;;7.80;99.90;;;;;;10440603;28;20480;-78
2023/01/09 15:04:37;;;;;;;5.97;2.00;;;7.80;99.90;;;;;;10440803;28;20040;-78
2023/01/09 15:09:44;;;;;;;0.40;0.40;;;7.80;99.90;;;;;;10442407;28;20057;-77
2023/01/09 15:14:49;;;;;;;2.03;1.93;;;7.80;99.90;;;;;;10449296;28;20116;-78
2023/01/09 15:19:50;;;;;;;0.00;0.00;;;7.70;99.90;;;;;;10449101;28;20380;-79
2023/01/09 15:24:51;;;;;;;1.17;1.07;;;7.70;99.90;;;;;;10449309;28;20209;-82
2023/01/09 15:29:52;;;;;;;2.00;1.23;;;7.70;99.90;;;;;;10448791;28;20036;-79
2023/01/09 15:34:56;;;;;;;13.70;2.67;;;7.60;99.90;;;;;;10449382;28;20033;-81
2023/01/09 15:39:59;;;;;;;0.97;0.93;;;7.60;99.90;;;;;;10430463;28;20094;-79
2023/01/09 15:45:01;;;;;;;0.60;0.60;;;7.50;99.90;;;;;;10448237;28;20033;-79
2023/01/09 15:50:03;;;;;;;0.30;0.30;;;7.40;99.90;;;;;;10448080;28;20033;-79
2023/01/09 15:55:33;;;;;;;0.00;0.00;;;7.40;99.90;;;;;;10448120;28;20750;-80
2023/01/09 16:00:40;;;;;;;0.43;0.43;;;7.40;99.90;;;;;;10447129;28;20060;-80
2023/01/09 16:05:44;;;;;;;1.10;1.10;;;7.40;99.90;;;;;;10447991;28;20032;-79
2023/01/09 16:10:49;;;;;;;1.07;1.07;;;7.40;99.90;;;;;;10448065;28;20033;-79
2023/01/09 16:15:51;;;;;;;7.97;2.33;;;7.40;99.90;;;;;;10447711;28;20062;-80
2023/01/09 16:21:01;;;;;;;2.33;2.23;;;7.30;99.90;;;;;;10447013;28;20537;-78
2023/01/09 16:26:11;;;;;;;11.90;4.83;;;7.30;99.90;;;;;;10445742;28;20044;-81
2023/01/09 16:31:29;;;;;;;2.40;2.30;;;7.30;99.90;;;;;;10445885;28;20071;-78
2023/01/09 16:36:30;;;;;;;2.40;1.83;;;7.30;99.90;;;;;;10434194;28;20343;-77
2023/01/09 16:46:50;;;;;;;1.23;1.13;;;7.30;99.90;;;;;;10441509;28;20037;-78
2023/01/09 16:51:51;;;;;;;0.30;0.30;;;7.30;99.90;;;;;;10451201;28;20029;-76
2023/01/09 16:56:53;;;;;;;3.67;2.57;;;7.30;99.90;;;;;;10441540;28;20079;-78
2023/01/09 17:01:54;;;;;;;3.27;1.83;;;7.30;99.90;;;;;;10422608;28;20053;-77
2023/01/09 17:06:55;;;;;;;1.43;1.40;;;7.30;99.90;;;;;;10443741;28;20032;-78
2023/01/09 17:11:55;;;;;;;1.07;0.67;;;7.30;99.90;;;;;;10445417;28;20025;-77
2023/01/09 17:17:02;;;;;;;3.60;2.83;;;7.30;99.90;;;;;;10437772;28;20040;-79
2023/01/09 17:22:03;;;;;;;3.07;2.90;;;7.30;99.90;;;;;;10421141;28;20025;-77
2023/01/09 17:32:38;;;;;;;2.90;2.67;;;7.20;99.90;;;;;;10384910;28;20036;-77
2023/01/09 17:37:38;;;;;;;1.70;1.60;;;7.10;99.90;;;;;;10426162;28;20041;-77
2023/01/09 17:42:39;;;;;;;0.70;0.67;;;7.10;99.90;;;;;;10423246;28;20134;-77
2023/01/09 17:47:40;;;;;;;1.43;1.33;;;7.10;99.90;;;;;;10421557;28;20021;-78
2023/01/09 17:52:41;;;;;;;1.40;1.30;;;7.10;99.90;;;;;;10435037;28;20032;-78
2023/01/09 17:57:42;;;;;;;1.40;1.30;;;7.00;99.90;;;;;;10424425;28;20393;-78
2023/01/09 18:02:43;;;;;;;5.33;4.87;;;7.00;99.90;;;;;;10404497;28;20060;-77
2023/01/09 18:07:43;;;;;;;3.37;1.53;;;7.00;99.90;;;;;;10416648;28;20048;-78
2023/01/09 18:12:47;;;;;;;0.20;0.20;;;7.00;99.90;;;;;;10420566;28;20037;-77
2023/01/09 18:17:48;;;;;;;1.30;1.20;;;6.90;99.90;;;;;;10433376;28;20049;-78
2023/01/09 18:22:50;;;;;;;1.63;1.53;;;6.90;99.90;;;;;;10425260;28;20560;-78
2023/01/09 18:27:51;;;;;;;8.17;2.80;;;6.90;99.90;;;;;;10440306;28;20025;-77
2023/01/09 18:32:51;;;;;;;2.27;1.60;;;7.00;99.90;;;;;;10441335;28;20013;-77
2023/01/09 18:37:52;;;;;;;1.93;1.83;;;6.90;99.90;;;;;;10425884;28;20072;-77
2023/01/09 18:42:53;;;;;;;1.07;1.03;;;7.00;99.90;;;;;;10439989;28;20025;-77
2023/01/09 18:47:54;;;;;;;1.40;1.07;;;6.90;99.90;;;;;;10442265;28;20669;-77
2023/01/09 18:52:54;;;;;;;1.33;1.30;;;6.80;99.90;;;;;;10454596;28;20029;-77
2023/01/09 18:57:55;;;;;;;0.63;0.63;;;6.80;99.90;;;;;;10442510;28;20484;-78
2023/01/09 19:02:56;;;;;;;2.50;2.40;;;6.80;99.90;;;;;;10480224;28;20125;-79
2023/01/09 19:07:57;;;;;;;1.67;1.67;;;6.70;99.90;;;;;;10483655;28;20545;-79
2023/01/09 19:12:57;;;;;;;2.60;2.40;;;6.70;99.90;;;;;;10480484;28;20021;-78
2023/01/09 19:17:58;;;;;;;2.60;2.40;;;6.60;99.90;;;;;;10467753;28;20550;-83
2023/01/09 19:22:59;;;;;;;1.47;1.37;;;6.60;99.90;;;;;;10451818;28;20025;-82
2023/01/09 19:28:00;;;;;;;3.63;2.87;;;6.50;99.90;;;;;;10443066;28;20476;-79
2023/01/09 19:33:02;;;;;;;8.93;6.93;;;6.60;99.90;;;;;;10471935;28;20043;-81
2023/01/09 19:38:06;;;;;;;8.23;5.87;;;6.60;99.90;;;;;;10463802;28;20037;-80
2023/01/09 19:43:07;;;;;;;5.40;4.03;;;6.60;99.90;;;;;;10465140;28;20836;-78
2023/01/09 19:48:08;;;;;;;1.67;1.57;;;6.50;99.90;;;;;;10474753;28;20021;-82
2023/01/09 19:53:08;;;;;;;10.57;3.93;;;6.40;99.90;;;;;;10473872;28;20036;-81
2023/01/09 19:58:09;;;;;;;3.50;2.40;;;6.30;99.90;;;;;;10478216;28;20103;-82
2023/01/09 20:03:10;;;;;;;2.17;2.07;;;6.10;99.90;;;;;;10487980;28;20535;-80
2023/01/09 20:08:10;;;;;;;0.47;0.47;;;6.10;99.90;;;;;;10491892;28;20139;-81
2023/01/09 20:13:11;;;;;;;2.07;1.97;;;6.10;99.90;;;;;;10495228;28;20089;-81
2023/01/09 20:18:12;;;;;;;2.27;2.10;;;6.10;99.90;;;;;;10487243;28;20369;-80
2023/01/09 20:23:15;;;;;;;2.03;1.87;;;6.10;99.90;;;;;;10487720;28;20034;-82
2023/01/09 20:28:17;;;;;;;3.23;2.67;;;6.00;99.90;;;;;;10502481;28;20076;-80
2023/01/09 20:33:19;;;;;;;1.90;1.80;;;6.00;99.90;;;;;;10487822;28;20099;-82
2023/01/09 20:38:19;;;;;;;3.43;3.23;;;5.90;99.90;;;;;;10470295;28;20036;-80
2023/01/09 20:43:20;;;;;;;3.83;3.47;;;5.90;99.90;;;;;;10487800;28;20041;-82
2023/01/09 20:48:20;;;;;;;7.10;2.60;;;5.80;99.90;;;;;;10492622;28;20111;-80
2023/01/09 20:53:21;;;;;;;3.60;3.40;;;5.70;99.90;;;;;;10491754;28;20116;-80
2023/01/09 20:58:21;;;;;;;2.03;1.93;;;5.70;99.90;;;;;;10487539;28;20040;-79
2023/01/09 21:03:22;;;;;;;5.23;2.40;;;5.60;99.90;;;;;;10488901;28;20109;-80
2023/01/09 21:08:23;;;;;;;0.90;0.90;;;5.50;99.90;;;;;;10488523;28;20030;-80
2023/01/09 21:13:25;;;;;;;1.33;1.30;;;5.50;99.90;;;;;;10462727;28;20412;-84
2023/01/09 21:18:25;;;;;;;1.10;1.10;;;5.40;99.90;;;;;;10486052;28;20032;-80
2023/01/09 21:23:26;;;;;;;6.27;5.00;;;5.30;99.90;;;;;;10487870;28;20029;-80
2023/01/09 21:28:29;;;;;;;3.77;1.47;;;5.40;99.90;;;;;;10468063;28;20035;-79
2023/01/09 21:33:30;;;;;;;0.77;0.77;;;5.50;99.90;;;;;;10485589;28;20028;-80
2023/01/09 21:38:31;;;;;;;4.33;3.93;;;5.60;99.90;;;;;;10498259;28;20438;-81
2023/01/09 21:48:50;;;;;;;3.50;1.83;;;5.70;99.90;;;;;;10480955;28;20127;-83
2023/01/09 21:53:51;;;;;;;0.90;0.60;;;5.70;99.90;;;;;;10486807;28;20028;-81
2023/01/09 21:58:51;;;;;;;1.47;1.10;;;5.70;99.90;;;;;;10486979;28;20082;-80
2023/01/09 22:03:53;;;;;;;3.87;2.67;;;5.70;99.90;;;;;;10465625;28;20032;-80
2023/01/09 22:08:54;;;;;;;0.53;0.53;;;5.70;99.90;;;;;;10484370;28;20106;-82
2023/01/09 22:13:56;;;;;;;1.67;1.57;;;5.80;99.90;;;;;;10483834;28;20024;-80
2023/01/09 22:18:57;;;;;;;3.00;2.10;;;5.80;99.90;;;;;;10483964;28;20031;-80
2023/01/09 22:24:00;;;;;;;0.00;0.00;;;5.80;99.90;;;;;;10485315;28;20539;-80
2023/01/09 22:29:00;;;;;;;1.53;1.50;;;5.80;99.90;;;;;;10465764;28;20127;-83
2023/01/09 22:34:01;;;;;;;0.10;0.10;;;5.80;99.90;;;;;;10494443;28;20029;-79
2023/01/09 22:39:02;;;;;;;0.00;0.00;;;5.80;99.90;;;;;;10483986;28;20119;-79
2023/01/09 22:44:02;;;;;;;2.40;2.30;;;5.80;99.90;;;;;;10487419;28;20036;-80
2023/01/09 22:49:03;;;;;;;1.00;1.00;;;5.90;99.90;;;;;;10490127;28;20698;-80
2023/01/09 22:54:04;;;;;;;6.43;1.70;;;5.90;99.90;;;;;;10485609;28;20389;-80
2023/01/09 22:59:04;;;;;;;1.67;1.57;;;5.80;99.90;;;;;;10468328;28;20049;-80
2023/01/09 23:04:05;;;;;;;1.83;1.60;;;5.90;99.90;;;;;;10442320;28;20086;-81
2023/01/09 23:09:06;;;;;;;3.00;2.77;;;5.90;99.90;;;;;;10442451;28;20098;-81
2023/01/09 23:14:06;;;;;;;0.60;0.60;;;5.80;99.90;;;;;;10441070;28;20059;-80
2023/01/09 23:19:16;;;;;;;3.67;1.17;;;5.80;99.90;;;;;;10444145;28;20137;-79
2023/01/09 23:24:17;;;;;;;0.40;0.40;;;5.80;99.90;;;;;;10442101;28;20033;-84
2023/01/09 23:29:18;;;;;;;6.43;3.63;;;5.80;99.90;;;;;;10453318;28;20083;-79
2023/01/09 23:34:25;;;;;;;0.10;0.10;;;5.80;99.90;;;;;;10457851;28;20037;-82
2023/01/09 23:39:25;;;;;;;2.00;1.90;;;5.80;99.90;;;;;;10440609;28;20496;-80
2023/01/09 23:44:26;;;;;;;0.77;0.77;;;5.80;99.90;;;;;;10464375;22;20076;-83
2023/01/09 23:49:26;;;;;;;0.70;0.70;;;5.70;99.90;;;;;;10449016;28;20090;-80
2023/01/09 23:54:27;;;;;;;2.80;2.67;;;5.70;99.90;;;;;;10449552;28;20531;-80
2023/01/09 23:59:28;;;;;;;0.27;0.27;;;5.80;99.90;;;;;;10448134;28;20396;-81
